Time;durP1;ratioP1;P1;durP2;ratioP2;P2;SDS_P1;SDS_P2;PMS_P1;PMS_P2;Temp;Humidity;BMP_temperature;BMP_pressure;BME280_temperature;BME280_humidity;BME280_pressure;Samples;Min_cycle;Max_cycle;Signal;HPM_P1;HPM_P2
2021/11/24 00:01:01;;;;;;;4.93;4.00;;;;;;;;;;4974407;28;20260;-85
2021/11/24 00:03:30;;;;;;;4.77;4.37;;;;;;;;;;4975497;28;20272;-84
2021/11/24 00:05:57;;;;;;;4.80;4.40;;;;;;;;;;4975712;28;20638;-85
2021/11/24 00:08:24;;;;;;;5.40;3.97;;;;;;;;;;4975994;28;20664;-85
2021/11/24 00:10:52;;;;;;;4.60;4.10;;;;;;;;;;4974974;28;20201;-85
2021/11/24 00:13:19;;;;;;;4.60;4.20;;;;;;;;;;4975538;28;20205;-85
2021/11/24 00:15:46;;;;;;;5.43;4.37;;;;;;;;;;4975842;28;20253;-85
2021/11/24 00:18:13;;;;;;;6.37;4.83;;;;;;;;;;4975140;28;20197;-86
2021/11/24 00:20:42;;;;;;;5.43;4.53;;;;;;;;;;4974990;28;20200;-85
2021/11/24 00:23:10;;;;;;;5.00;4.50;;;;;;;;;;4975344;28;20201;-85
2021/11/24 00:25:37;;;;;;;4.97;4.00;;;;;;;;;;4975018;28;20205;-85
2021/11/24 00:28:05;;;;;;;4.90;4.40;;;;;;;;;;4975103;28;20709;-85
2021/11/24 00:30:32;;;;;;;4.80;4.20;;;;;;;;;;4974943;28;20205;-84
2021/11/24 00:32:59;;;;;;;6.27;5.10;;;;;;;;;;4975405;28;20219;-85
2021/11/24 00:35:26;;;;;;;4.53;4.00;;;;;;;;;;4975236;28;20271;-85
2021/11/24 00:37:55;;;;;;;4.87;4.37;;;;;;;;;;4975267;28;20631;-85
2021/11/24 00:40:23;;;;;;;4.07;3.67;;;;;;;;;;4974700;28;20226;-85
2021/11/24 00:42:50;;;;;;;4.50;4.10;;;;;;;;;;4974902;28;20236;-85
2021/11/24 00:45:17;;;;;;;4.27;3.87;;;;;;;;;;4974664;28;20283;-84
2021/11/24 00:47:45;;;;;;;4.57;3.70;;;;;;;;;;4974699;28;20737;-86
2021/11/24 00:50:13;;;;;;;5.83;3.87;;;;;;;;;;4974604;28;20208;-85
2021/11/24 00:52:40;;;;;;;5.83;4.47;;;;;;;;;;4974738;28;20201;-85
2021/11/24 00:55:10;;;;;;;4.67;4.27;;;;;;;;;;4974493;28;20278;-85
2021/11/24 00:57:37;;;;;;;4.67;4.20;;;;;;;;;;4974622;28;20795;-85
2021/11/24 01:00:05;;;;;;;4.50;4.10;;;;;;;;;;4974258;28;20260;-84
2021/11/24 01:02:33;;;;;;;5.07;4.17;;;;;;;;;;4974620;28;20232;-85
2021/11/24 01:05:00;;;;;;;5.10;4.60;;;;;;;;;;4974375;28;20205;-86
2021/11/24 01:07:27;;;;;;;5.40;4.90;;;;;;;;;;4974503;28;20691;-85
2021/11/24 01:09:54;;;;;;;4.57;4.17;;;;;;;;;;4974009;28;20264;-84
2021/11/24 01:12:23;;;;;;;5.40;4.90;;;;;;;;;;4974421;28;20205;-84
2021/11/24 01:14:51;;;;;;;4.53;4.10;;;;;;;;;;4974235;28;20207;-85
2021/11/24 01:17:18;;;;;;;4.03;3.67;;;;;;;;;;4973773;28;20201;-85
2021/11/24 01:19:45;;;;;;;4.30;3.90;;;;;;;;;;4964725;28;20288;-85
2021/11/24 01:22:12;;;;;;;4.60;4.20;;;;;;;;;;4974139;28;20205;-85
2021/11/24 01:24:40;;;;;;;5.47;4.00;;;;;;;;;;4974104;28;20248;-85
2021/11/24 01:27:08;;;;;;;4.20;3.60;;;;;;;;;;4973974;28;20291;-86
2021/11/24 01:29:37;;;;;;;4.17;3.60;;;;;;;;;;4974002;28;20782;-86
2021/11/24 01:32:04;;;;;;;4.30;3.90;;;;;;;;;;4973363;28;20248;-85
2021/11/24 01:34:32;;;;;;;4.87;3.63;;;;;;;;;;4973792;28;20239;-85
2021/11/24 01:36:59;;;;;;;4.93;3.30;;;;;;;;;;4974047;28;20212;-85
2021/11/24 01:39:26;;;;;;;4.10;3.70;;;;;;;;;;4974003;28;20588;-86
2021/11/24 01:41:53;;;;;;;4.60;3.97;;;;;;;;;;4973899;28;20251;-85
2021/11/24 01:44:22;;;;;;;4.23;3.83;;;;;;;;;;4973721;28;20197;-85
2021/11/24 01:46:54;;;;;;;4.30;3.90;;;;;;;;;;4973585;28;20201;-85
2021/11/24 01:49:23;;;;;;;5.63;4.97;;;;;;;;;;4973653;28;20206;-85
2021/11/24 01:51:50;;;;;;;3.77;3.40;;;;;;;;;;4974005;28;20193;-85
2021/11/24 01:54:18;;;;;;;4.37;3.77;;;;;;;;;;4973526;28;20715;-85
2021/11/24 01:56:46;;;;;;;4.07;3.70;;;;;;;;;;4973600;28;20201;-86
2021/11/24 01:59:15;;;;;;;4.50;4.10;;;;;;;;;;4973907;28;20612;-85
2021/11/24 02:01:43;;;;;;;4.33;3.67;;;;;;;;;;4973621;28;20236;-85
2021/11/24 02:04:12;;;;;;;5.10;3.87;;;;;;;;;;4973286;28;20268;-85
2021/11/24 02:06:40;;;;;;;5.47;3.90;;;;;;;;;;4973204;28;20204;-85
2021/11/24 02:09:07;;;;;;;5.10;4.33;;;;;;;;;;4973616;28;20592;-84
2021/11/24 02:11:36;;;;;;;4.60;4.20;;;;;;;;;;4973375;28;20201;-85
2021/11/24 02:14:04;;;;;;;4.73;4.20;;;;;;;;;;4973200;28;20232;-85
2021/11/24 02:16:32;;;;;;;4.90;4.10;;;;;;;;;;4973501;28;20200;-85
2021/11/24 02:18:59;;;;;;;5.07;3.83;;;;;;;;;;4973323;28;20204;-85
2021/11/24 02:21:28;;;;;;;4.57;4.10;;;;;;;;;;4973576;28;20608;-85
2021/11/24 02:23:55;;;;;;;5.17;4.50;;;;;;;;;;4973268;28;20255;-85
2021/11/24 02:26:23;;;;;;;4.03;3.60;;;;;;;;;;4973122;28;20196;-86
2021/11/24 02:28:50;;;;;;;4.63;4.13;;;;;;;;;;4973182;28;20267;-85
2021/11/24 02:31:21;;;;;;;4.83;4.30;;;;;;;;;;4972982;28;20296;-85
2021/11/24 02:33:52;;;;;;;4.93;4.53;;;;;;;;;;4973130;28;20232;-85
2021/11/24 02:36:20;;;;;;;6.63;4.37;;;;;;;;;;4972751;28;20267;-85
2021/11/24 02:38:48;;;;;;;6.63;4.40;;;;;;;;;;4973131;28;20287;-85
2021/11/24 02:41:16;;;;;;;5.33;4.83;;;;;;;;;;4972917;28;20205;-85
2021/11/24 02:43:43;;;;;;;4.30;3.90;;;;;;;;;;4976199;28;20259;-85
2021/11/24 02:46:10;;;;;;;5.03;4.60;;;;;;;;;;4976651;28;20337;-85
2021/11/24 02:48:38;;;;;;;4.73;4.17;;;;;;;;;;4959218;28;20214;-86
2021/11/24 02:51:05;;;;;;;7.37;5.20;;;;;;;;;;4958181;28;20583;-86
2021/11/24 02:53:36;;;;;;;6.20;4.80;;;;;;;;;;4957951;28;20226;-85
2021/11/24 02:56:05;;;;;;;7.47;5.83;;;;;;;;;;4957532;29;20707;-86
2021/11/24 02:58:33;;;;;;;6.60;5.07;;;;;;;;;;4957496;29;20261;-86
2021/11/24 03:01:03;;;;;;;6.53;5.73;;;;;;;;;;4957438;29;20261;-86
2021/11/24 03:03:30;;;;;;;9.50;7.63;;;;;;;;;;4957172;29;20240;-85
2021/11/24 03:05:57;;;;;;;8.37;7.40;;;;;;;;;;4957173;29;20202;-86
2021/11/24 03:08:25;;;;;;;8.87;8.03;;;;;;;;;;4957373;29;20257;-86
2021/11/24 03:10:52;;;;;;;7.67;6.83;;;;;;;;;;4957335;29;20219;-84
2021/11/24 03:13:20;;;;;;;8.13;6.83;;;;;;;;;;4957058;29;20206;-85
2021/11/24 03:15:48;;;;;;;7.33;6.63;;;;;;;;;;4957176;28;20245;-85
2021/11/24 03:18:15;;;;;;;9.43;7.57;;;;;;;;;;4956823;28;20667;-85
2021/11/24 03:20:42;;;;;;;10.07;8.27;;;;;;;;;;4956797;28;20212;-85
2021/11/24 03:23:10;;;;;;;8.63;7.80;;;;;;;;;;4957138;29;20241;-85
2021/11/24 03:25:37;;;;;;;8.63;7.30;;;;;;;;;;4956809;29;20296;-86
2021/11/24 03:28:05;;;;;;;7.63;6.83;;;;;;;;;;4956929;29;20229;-85
2021/11/24 03:30:35;;;;;;;9.37;6.63;;;;;;;;;;4956486;28;20730;-86
2021/11/24 03:33:03;;;;;;;8.43;6.80;;;;;;;;;;4956864;29;20198;-85
2021/11/24 03:35:32;;;;;;;9.10;6.00;;;;;;;;;;4956660;29;20630;-84
2021/11/24 03:38:00;;;;;;;8.57;7.47;;;;;;;;;;4956718;29;20205;-85
2021/11/24 03:40:29;;;;;;;9.07;6.87;;;;;;;;;;4956387;29;20727;-84
2021/11/24 03:42:56;;;;;;;7.33;6.20;;;;;;;;;;4956521;29;20257;-85
2021/11/24 03:45:26;;;;;;;12.43;8.57;;;;;;;;;;4955923;29;20257;-85
2021/11/24 03:47:54;;;;;;;7.57;6.57;;;;;;;;;;4956497;29;20242;-87
2021/11/24 03:50:22;;;;;;;7.67;6.27;;;;;;;;;;4956667;29;20225;-85
2021/11/24 03:52:49;;;;;;;7.53;6.80;;;;;;;;;;4956372;29;20294;-85
2021/11/24 03:55:17;;;;;;;6.90;5.93;;;;;;;;;;4955631;28;20201;-85
2021/11/24 03:57:45;;;;;;;19.53;15.13;;;;;;;;;;4956218;29;20229;-84
2021/11/24 04:00:14;;;;;;;13.77;11.00;;;;;;;;;;4956018;29;20194;-84
2021/11/24 04:02:42;;;;;;;16.30;12.10;;;;;;;;;;4955983;28;20238;-84
2021/11/24 04:05:11;;;;;;;17.30;15.07;;;;;;;;;;4955751;29;20675;-84
2021/11/24 04:07:39;;;;;;;17.43;14.80;;;;;;;;;;4956020;29;20290;-84
2021/11/24 04:10:07;;;;;;;15.60;13.70;;;;;;;;;;4956044;28;20706;-83
2021/11/24 04:12:35;;;;;;;17.77;13.77;;;;;;;;;;4975432;28;20205;-85
2021/11/24 04:15:02;;;;;;;15.47;13.40;;;;;;;;;;4975288;28;20287;-84
2021/11/24 04:17:29;;;;;;;26.13;19.43;;;;;;;;;;4966354;28;20268;-84
2021/11/24 04:19:56;;;;;;;23.40;18.07;;;;;;;;;;4955320;29;20220;-83
2021/11/24 04:22:25;;;;;;;13.47;12.07;;;;;;;;;;4955129;29;20208;-84
2021/11/24 04:24:52;;;;;;;24.57;15.97;;;;;;;;;;4955125;29;20221;-84
2021/11/24 04:27:20;;;;;;;17.47;13.43;;;;;;;;;;4954957;29;20248;-83
2021/11/24 04:29:47;;;;;;;15.53;13.50;;;;;;;;;;4955319;29;20252;-83
2021/11/24 04:32:16;;;;;;;16.43;13.47;;;;;;;;;;4955169;29;20578;-84
2021/11/24 04:34:44;;;;;;;16.17;12.40;;;;;;;;;;4954936;29;20202;-85
2021/11/24 04:37:11;;;;;;;18.33;14.70;;;;;;;;;;4955017;29;20197;-84
2021/11/24 04:39:40;;;;;;;16.03;13.80;;;;;;;;;;4954660;29;20301;-84
2021/11/24 04:42:08;;;;;;;16.30;13.33;;;;;;;;;;4954648;29;20202;-84
2021/11/24 04:44:35;;;;;;;15.83;12.67;;;;;;;;;;4954536;29;20252;-83
2021/11/24 04:47:03;;;;;;;17.23;12.33;;;;;;;;;;4952802;28;20248;-85
2021/11/24 04:49:30;;;;;;;16.43;12.00;;;;;;;;;;4954026;28;20261;-86
2021/11/24 04:51:57;;;;;;;17.47;14.57;;;;;;;;;;4954842;28;20747;-85
2021/11/24 04:54:24;;;;;;;19.17;12.87;;;;;;;;;;4954833;28;20208;-86
2021/11/24 04:56:53;;;;;;;14.90;11.57;;;;;;;;;;4954566;29;20225;-86
2021/11/24 04:59:21;;;;;;;15.10;11.77;;;;;;;;;;4954642;29;20205;-85
2021/11/24 05:01:48;;;;;;;13.37;10.60;;;;;;;;;;4955313;29;20210;-87
2021/11/24 05:04:20;;;;;;;15.00;11.40;;;;;;;;;;4954809;29;20626;-87
2021/11/24 05:06:48;;;;;;;11.43;10.07;;;;;;;;;;4953932;28;20216;-86
2021/11/24 05:09:15;;;;;;;12.33;10.30;;;;;;;;;;4955569;28;20205;-87
2021/11/24 05:11:42;;;;;;;11.70;9.60;;;;;;;;;;4954640;29;20198;-87
2021/11/24 05:14:16;;;;;;;14.10;10.03;;;;;;;;;;4955126;29;20209;-88
2021/11/24 05:16:47;;;;;;;13.13;9.67;;;;;;;;;;4972513;28;20267;-85
2021/11/24 05:19:18;;;;;;;11.77;8.90;;;;;;;;;;4974344;28;20185;-85
2021/11/24 05:21:49;;;;;;;11.13;9.57;;;;;;;;;;4955460;29;20655;-86
2021/11/24 05:24:17;;;;;;;12.33;9.10;;;;;;;;;;4955203;29;20186;-86
2021/11/24 05:26:44;;;;;;;12.53;9.17;;;;;;;;;;4955139;29;20296;-86
2021/11/24 05:29:13;;;;;;;13.20;9.57;;;;;;;;;;4963654;28;20225;-85
2021/11/24 05:31:40;;;;;;;13.10;9.70;;;;;;;;;;4974187;28;20665;-87
2021/11/24 05:34:08;;;;;;;11.43;9.10;;;;;;;;;;4968366;28;20244;-86
2021/11/24 05:36:35;;;;;;;17.03;12.83;;;;;;;;;;4973866;28;20208;-86
2021/11/24 05:39:05;;;;;;;11.47;8.80;;;;;;;;;;4973959;28;20207;-86
2021/11/24 05:41:37;;;;;;;12.27;9.67;;;;;;;;;;4974646;28;20185;-86
2021/11/24 05:44:15;;;;;;;9.47;8.20;;;;;;;;;;4974296;28;20634;-86
2021/11/24 05:46:46;;;;;;;11.90;10.40;;;;;;;;;;4974618;28;20275;-86
2021/11/24 05:49:13;;;;;;;13.17;10.07;;;;;;;;;;4974106;28;20248;-87
2021/11/24 05:51:41;;;;;;;12.10;10.13;;;;;;;;;;4973901;28;20225;-86
2021/11/24 05:54:08;;;;;;;12.40;8.70;;;;;;;;;;4973968;28;20264;-86
2021/11/24 05:56:36;;;;;;;18.43;13.70;;;;;;;;;;4974136;28;20201;-86
2021/11/24 05:59:03;;;;;;;16.20;14.07;;;;;;;;;;4973778;28;20252;-85
2021/11/24 06:01:31;;;;;;;10.93;9.70;;;;;;;;;;4973790;28;20681;-86
2021/11/24 06:04:00;;;;;;;10.23;7.30;;;;;;;;;;4973793;28;20225;-86
2021/11/24 06:06:27;;;;;;;9.10;8.00;;;;;;;;;;4973744;28;20190;-86
2021/11/24 06:08:54;;;;;;;18.37;15.67;;;;;;;;;;4973555;28;20701;-86
2021/11/24 06:11:22;;;;;;;8.43;6.70;;;;;;;;;;4973557;28;20276;-86
2021/11/24 06:13:49;;;;;;;9.83;7.33;;;;;;;;;;4961391;28;20288;-87
2021/11/24 06:16:17;;;;;;;11.60;9.20;;;;;;;;;;4954304;29;20198;-86
2021/11/24 06:18:44;;;;;;;9.67;7.93;;;;;;;;;;4953952;28;20624;-86
2021/11/24 06:21:13;;;;;;;7.70;6.47;;;;;;;;;;4954335;29;20205;-86
2021/11/24 06:23:41;;;;;;;6.70;6.10;;;;;;;;;;4954296;29;20653;-86
2021/11/24 06:26:10;;;;;;;7.20;6.37;;;;;;;;;;4954355;29;20198;-85
2021/11/24 06:28:37;;;;;;;18.30;12.77;;;;;;;;;;4954129;29;20206;-87
2021/11/24 06:31:05;;;;;;;119.03;63.83;;;;;;;;;;4954193;29;20222;-87
2021/11/24 06:33:32;;;;;;;31.13;23.33;;;;;;;;;;4954371;29;20202;-86
2021/11/24 06:35:59;;;;;;;14.57;11.87;;;;;;;;;;4954182;29;20289;-86
2021/11/24 06:38:28;;;;;;;12.47;9.20;;;;;;;;;;4954031;29;20682;-86
2021/11/24 06:40:55;;;;;;;10.37;8.63;;;;;;;;;;4954027;29;20285;-86
2021/11/24 06:43:23;;;;;;;9.73;7.43;;;;;;;;;;4953951;29;20292;-86
2021/11/24 06:45:50;;;;;;;22.10;17.00;;;;;;;;;;4953891;29;20284;-86
2021/11/24 06:48:17;;;;;;;13.20;10.40;;;;;;;;;;4954061;29;20201;-86
2021/11/24 06:50:44;;;;;;;8.33;7.13;;;;;;;;;;4953843;29;20229;-86
2021/11/24 06:53:12;;;;;;;10.60;9.20;;;;;;;;;;4953953;29;20292;-86
2021/11/24 06:55:40;;;;;;;8.07;6.60;;;;;;;;;;4953898;29;20202;-86
2021/11/24 06:58:08;;;;;;;11.30;6.00;;;;;;;;;;4953942;29;20238;-86
2021/11/24 07:00:35;;;;;;;14.53;10.33;;;;;;;;;;4953713;29;20260;-86
2021/11/24 07:03:02;;;;;;;10.27;6.93;;;;;;;;;;4953607;29;20238;-86
2021/11/24 07:05:29;;;;;;;25.70;13.00;;;;;;;;;;4953823;29;20252;-86
2021/11/24 07:07:57;;;;;;;9.17;6.27;;;;;;;;;;4954240;29;20241;-86
2021/11/24 07:10:24;;;;;;;20.13;11.63;;;;;;;;;;4953731;29;20313;-86
2021/11/24 07:12:53;;;;;;;107.20;55.37;;;;;;;;;;4953355;29;20698;-85
2021/11/24 07:15:21;;;;;;;29.83;17.67;;;;;;;;;;4953675;29;20607;-86
2021/11/24 07:17:48;;;;;;;116.37;48.93;;;;;;;;;;4953756;29;20237;-86
2021/11/24 07:20:15;;;;;;;42.97;22.87;;;;;;;;;;4953875;29;20253;-86
2021/11/24 07:22:43;;;;;;;30.00;17.57;;;;;;;;;;4953672;29;20198;-86
2021/11/24 07:25:11;;;;;;;34.10;17.27;;;;;;;;;;4953831;29;20238;-86
2021/11/24 07:27:38;;;;;;;11.90;8.03;;;;;;;;;;4953574;29;20204;-86
2021/11/24 07:30:09;;;;;;;8.70;6.70;;;;;;;;;;4955483;28;20225;-86
2021/11/24 07:32:36;;;;;;;22.77;16.73;;;;;;;;;;4957972;29;20186;-86
2021/11/24 07:35:04;;;;;;;8.43;6.87;;;;;;;;;;4957310;29;20205;-86
2021/11/24 07:37:31;;;;;;;5.97;4.80;;;;;;;;;;4957221;29;20206;-86
2021/11/24 07:39:59;;;;;;;6.60;4.20;;;;;;;;;;4956891;29;20233;-86
2021/11/24 07:42:26;;;;;;;5.40;4.90;;;;;;;;;;4957420;29;20294;-86
2021/11/24 07:44:53;;;;;;;5.43;4.63;;;;;;;;;;4957188;29;20206;-86
2021/11/24 07:47:22;;;;;;;5.03;4.53;;;;;;;;;;4956981;29;20764;-86
2021/11/24 07:49:49;;;;;;;7.43;5.67;;;;;;;;;;4956972;29;20244;-86
2021/11/24 07:52:17;;;;;;;7.93;6.03;;;;;;;;;;4956758;29;20222;-87
2021/11/24 07:54:44;;;;;;;6.80;5.33;;;;;;;;;;4956658;29;20256;-87
2021/11/24 07:57:12;;;;;;;7.33;5.47;;;;;;;;;;4956620;29;20256;-86
2021/11/24 07:59:39;;;;;;;6.30;4.70;;;;;;;;;;4956723;29;20644;-86
2021/11/24 08:02:07;;;;;;;6.63;4.63;;;;;;;;;;4956541;29;20638;-86
2021/11/24 08:04:35;;;;;;;8.03;6.47;;;;;;;;;;4956746;29;20249;-86
2021/11/24 08:07:04;;;;;;;4.60;4.13;;;;;;;;;;4956827;29;20213;-86
2021/11/24 08:09:31;;;;;;;5.10;4.57;;;;;;;;;;4956590;29;20198;-86
2021/11/24 08:12:00;;;;;;;4.70;4.27;;;;;;;;;;4956444;29;20225;-86
2021/11/24 08:14:27;;;;;;;4.57;3.97;;;;;;;;;;4956834;29;20262;-86
2021/11/24 08:16:55;;;;;;;5.27;4.20;;;;;;;;;;4956315;29;20205;-86
2021/11/24 08:19:23;;;;;;;4.67;4.13;;;;;;;;;;4956615;29;20288;-86
2021/11/24 08:21:51;;;;;;;4.20;3.77;;;;;;;;;;4956260;29;20288;-86
2021/11/24 08:24:19;;;;;;;3.63;3.33;;;;;;;;;;4956271;29;20651;-86
2021/11/24 08:26:46;;;;;;;4.97;3.77;;;;;;;;;;4956339;29;20244;-86
2021/11/24 08:29:13;;;;;;;4.77;4.37;;;;;;;;;;4956422;29;20201;-86
2021/11/24 08:31:41;;;;;;;7.17;5.77;;;;;;;;;;4956449;29;20702;-86
2021/11/24 08:34:09;;;;;;;9.23;8.37;;;;;;;;;;4956401;29;20661;-87
2021/11/24 08:36:36;;;;;;;7.20;5.40;;;;;;;;;;4955917;29;20233;-87
2021/11/24 08:39:06;;;;;;;3.60;3.30;;;;;;;;;;4955990;29;20662;-87
2021/11/24 08:41:34;;;;;;;4.60;4.20;;;;;;;;;;4956016;28;20296;-87
2021/11/24 08:44:01;;;;;;;4.07;3.67;;;;;;;;;;4956078;29;20282;-90
2021/11/24 08:46:28;;;;;;;6.13;4.40;;;;;;;;;;4955889;29;20209;-87
2021/11/24 08:48:56;;;;;;;4.40;4.00;;;;;;;;;;4955744;29;20277;-87
2021/11/24 08:51:23;;;;;;;5.83;5.00;;;;;;;;;;4955520;29;20230;-87
2021/11/24 08:53:50;;;;;;;4.90;4.10;;;;;;;;;;4955769;29;20201;-87
2021/11/24 08:56:19;;;;;;;4.43;4.13;;;;;;;;;;4955898;29;20229;-87
2021/11/24 08:58:47;;;;;;;6.63;6.03;;;;;;;;;;4955603;29;20194;-87
2021/11/24 09:01:14;;;;;;;3.87;3.50;;;;;;;;;;4955943;29;20201;-86
2021/11/24 09:03:42;;;;;;;8.07;7.30;;;;;;;;;;4955471;29;20722;-86
2021/11/24 09:06:09;;;;;;;5.60;5.00;;;;;;;;;;4955787;29;20249;-87
2021/11/24 09:08:36;;;;;;;7.40;6.80;;;;;;;;;;4955381;29;20260;-87
2021/11/24 09:11:04;;;;;;;12.13;11.00;;;;;;;;;;4955611;29;20663;-86
2021/11/24 09:13:33;;;;;;;7.23;6.63;;;;;;;;;;4955220;29;20241;-87
2021/11/24 09:16:00;;;;;;;5.50;5.00;;;;;;;;;;4955185;29;20198;-86
2021/11/24 09:18:28;;;;;;;34.87;31.37;;;;;;;;;;4955521;29;20256;-87
2021/11/24 09:20:55;;;;;;;6.33;5.63;;;;;;;;;;4955083;29;20666;-86
2021/11/24 09:23:24;;;;;;;5.50;4.90;;;;;;;;;;4955113;29;20233;-87
2021/11/24 09:25:53;;;;;;;6.07;5.50;;;;;;;;;;4954938;29;20261;-87
2021/11/24 09:28:28;;;;;;;4.57;4.17;;;;;;;;;;4955208;29;20201;-87
2021/11/24 09:30:58;;;;;;;15.27;13.77;;;;;;;;;;4955151;29;20668;-87
2021/11/24 09:33:25;;;;;;;4.77;4.27;;;;;;;;;;4955234;29;20296;-87
2021/11/24 09:35:53;;;;;;;4.33;3.93;;;;;;;;;;4954882;29;20245;-87
2021/11/24 09:38:20;;;;;;;6.27;4.30;;;;;;;;;;4955247;29;20245;-86
2021/11/24 09:40:49;;;;;;;5.77;3.67;;;;;;;;;;4955195;29;20686;-87
2021/11/24 09:43:18;;;;;;;7.23;5.40;;;;;;;;;;4954733;29;20741;-87
2021/11/24 09:45:47;;;;;;;4.50;4.10;;;;;;;;;;4954669;29;20297;-87
2021/11/24 09:48:18;;;;;;;4.33;3.83;;;;;;;;;;4954751;29;20208;-86
2021/11/24 09:50:46;;;;;;;5.33;4.83;;;;;;;;;;4955044;29;20194;-86
2021/11/24 09:53:15;;;;;;;4.60;4.17;;;;;;;;;;4953975;28;20202;-87
2021/11/24 09:55:42;;;;;;;4.00;3.60;;;;;;;;;;4954681;29;20237;-86
2021/11/24 09:58:12;;;;;;;4.87;3.67;;;;;;;;;;4954546;29;20237;-86
2021/11/24 10:00:40;;;;;;;5.63;4.90;;;;;;;;;;4954948;29;20709;-86
2021/11/24 10:03:08;;;;;;;7.40;6.43;;;;;;;;;;4954501;29;20265;-87
2021/11/24 10:05:36;;;;;;;4.57;4.17;;;;;;;;;;4954658;29;20563;-86
2021/11/24 10:08:04;;;;;;;4.97;4.47;;;;;;;;;;4954954;29;20687;-87
2021/11/24 10:10:32;;;;;;;4.07;3.67;;;;;;;;;;4954436;29;20217;-86
2021/11/24 10:12:59;;;;;;;3.90;3.33;;;;;;;;;;4954204;29;20706;-86
2021/11/24 10:15:40;;;;;;;4.23;3.53;;;;;;;;;;4954659;29;20244;-86
2021/11/24 10:18:19;;;;;;;7.40;3.20;;;;;;;;;;4954615;29;20678;-86
2021/11/24 10:20:51;;;;;;;10.37;6.53;;;;;;;;;;4954311;29;20229;-87
2021/11/24 10:23:31;;;;;;;2.90;2.70;;;;;;;;;;4954299;29;20280;-87
2021/11/24 10:26:18;;;;;;;4.30;3.33;;;;;;;;;;4954188;29;20272;-87
2021/11/24 10:28:56;;;;;;;4.33;3.93;;;;;;;;;;4954218;29;20260;-87
2021/11/24 10:31:32;;;;;;;8.23;6.97;;;;;;;;;;4954156;29;20245;-87
2021/11/24 10:34:00;;;;;;;5.77;4.93;;;;;;;;;;4954205;29;20189;-87
2021/11/24 10:36:30;;;;;;;7.53;5.33;;;;;;;;;;4954091;29;20248;-87
2021/11/24 10:38:57;;;;;;;11.30;7.17;;;;;;;;;;4954464;29;20654;-87
2021/11/24 10:41:39;;;;;;;8.30;5.13;;;;;;;;;;4954228;29;20205;-86
2021/11/24 10:44:06;;;;;;;3.40;3.13;;;;;;;;;;4954049;29;20229;-87
2021/11/24 10:46:35;;;;;;;4.30;3.90;;;;;;;;;;4954192;29;20674;-87
2021/11/24 10:49:05;;;;;;;8.40;5.97;;;;;;;;;;4954165;29;20243;-86
2021/11/24 10:51:37;;;;;;;3.80;3.50;;;;;;;;;;4953868;29;20225;-87
2021/11/24 10:54:06;;;;;;;7.10;5.57;;;;;;;;;;4954003;29;20186;-86
2021/11/24 10:56:34;;;;;;;8.33;5.83;;;;;;;;;;4954030;29;20206;-86
2021/11/24 10:59:17;;;;;;;4.57;4.17;;;;;;;;;;4953730;28;20670;-86
2021/11/24 11:01:44;;;;;;;7.83;6.57;;;;;;;;;;4954073;29;20256;-87
2021/11/24 11:04:13;;;;;;;6.70;6.10;;;;;;;;;;4955659;28;20239;-86
2021/11/24 11:06:42;;;;;;;9.83;7.53;;;;;;;;;;4957644;29;20202;-87
2021/11/24 11:09:10;;;;;;;18.70;9.60;;;;;;;;;;4957752;29;20233;-87
2021/11/24 11:11:38;;;;;;;9.53;8.50;;;;;;;;;;4957823;29;20230;-87
2021/11/24 11:14:17;;;;;;;6.07;5.57;;;;;;;;;;4957707;29;20210;-86
2021/11/24 11:16:46;;;;;;;9.83;6.87;;;;;;;;;;4957559;29;20206;-86
2021/11/24 11:19:38;;;;;;;26.07;14.33;;;;;;;;;;4957436;29;20213;-87
2021/11/24 11:22:08;;;;;;;12.80;9.77;;;;;;;;;;4957390;29;20281;-87
2021/11/24 11:24:35;;;;;;;14.30;8.57;;;;;;;;;;4957538;29;20226;-87
2021/11/24 11:27:03;;;;;;;8.00;6.70;;;;;;;;;;4957327;29;20745;-87
2021/11/24 11:29:30;;;;;;;10.70;7.57;;;;;;;;;;4957297;29;20217;-87
2021/11/24 11:31:57;;;;;;;6.57;4.90;;;;;;;;;;4957045;29;20250;-87
2021/11/24 11:34:25;;;;;;;8.57;5.37;;;;;;;;;;4957137;29;20289;-87
2021/11/24 11:36:52;;;;;;;5.83;4.03;;;;;;;;;;4957182;29;20248;-87
2021/11/24 11:39:21;;;;;;;10.37;7.23;;;;;;;;;;4957240;29;20237;-87
2021/11/24 11:41:49;;;;;;;12.60;7.87;;;;;;;;;;4957697;29;20229;-87
2021/11/24 11:44:19;;;;;;;6.17;5.57;;;;;;;;;;4957154;29;20206;-86
2021/11/24 11:46:49;;;;;;;4.33;3.93;;;;;;;;;;4957336;29;20206;-87
2021/11/24 11:49:18;;;;;;;4.77;4.27;;;;;;;;;;4956917;29;20816;-87
2021/11/24 11:51:47;;;;;;;4.57;4.07;;;;;;;;;;4957096;29;20316;-87
2021/11/24 11:54:25;;;;;;;10.47;6.40;;;;;;;;;;4956883;29;20237;-86
2021/11/24 11:56:53;;;;;;;15.00;9.37;;;;;;;;;;4956977;29;20625;-87
2021/11/24 11:59:21;;;;;;;8.40;6.90;;;;;;;;;;4956996;29;20205;-87
2021/11/24 12:01:57;;;;;;;9.07;7.40;;;;;;;;;;4957037;29;20628;-87
2021/11/24 12:04:26;;;;;;;6.77;5.00;;;;;;;;;;4956415;29;20280;-86
2021/11/24 12:07:04;;;;;;;7.40;5.87;;;;;;;;;;4956786;29;20202;-88
2021/11/24 12:09:34;;;;;;;17.17;9.80;;;;;;;;;;4956751;29;20185;-87
2021/11/24 12:12:07;;;;;;;10.77;7.83;;;;;;;;;;4956068;29;20646;-87
2021/11/24 12:14:52;;;;;;;15.67;10.03;;;;;;;;;;4956116;28;20223;-87
2021/11/24 12:17:35;;;;;;;11.37;7.47;;;;;;;;;;4956692;29;20189;-87
2021/11/24 12:20:06;;;;;;;13.67;8.10;;;;;;;;;;4956285;29;20194;-86
2021/11/24 12:22:54;;;;;;;10.87;6.47;;;;;;;;;;4956725;29;20220;-87
2021/11/24 12:25:45;;;;;;;20.13;10.77;;;;;;;;;;4956030;29;20197;-87
2021/11/24 12:28:15;;;;;;;10.87;7.53;;;;;;;;;;4956285;29;20198;-86
2021/11/24 12:31:06;;;;;;;8.93;4.70;;;;;;;;;;4956049;29;20229;-86
2021/11/24 12:33:37;;;;;;;6.07;3.70;;;;;;;;;;4955976;29;20210;-87
2021/11/24 12:36:08;;;;;;;6.60;5.90;;;;;;;;;;4956045;29;20190;-87
2021/11/24 12:38:40;;;;;;;5.27;3.70;;;;;;;;;;4956058;29;20666;-87
2021/11/24 12:41:10;;;;;;;6.37;4.60;;;;;;;;;;4955994;29;20214;-87
2021/11/24 12:43:40;;;;;;;7.97;6.40;;;;;;;;;;4956132;29;20190;-87
2021/11/24 12:46:11;;;;;;;4.57;4.17;;;;;;;;;;4956000;29;20626;-86
2021/11/24 12:48:44;;;;;;;6.80;6.17;;;;;;;;;;4956176;29;20278;-87
2021/11/24 12:51:13;;;;;;;6.83;5.57;;;;;;;;;;4955787;29;20194;-87
2021/11/24 12:53:40;;;;;;;14.50;11.23;;;;;;;;;;4956172;29;20225;-87
2021/11/24 12:56:11;;;;;;;8.00;7.20;;;;;;;;;;4955838;29;20198;-87
2021/11/24 12:58:39;;;;;;;6.53;5.80;;;;;;;;;;4956134;29;20566;-86
2021/11/24 13:01:17;;;;;;;5.23;4.70;;;;;;;;;;4955451;29;20197;-87
2021/11/24 13:03:46;;;;;;;6.63;4.97;;;;;;;;;;4955570;29;20265;-87
2021/11/24 13:06:13;;;;;;;6.40;5.47;;;;;;;;;;4955438;29;20242;-87
2021/11/24 13:08:41;;;;;;;6.40;5.70;;;;;;;;;;4955417;29;20622;-87
2021/11/24 13:11:12;;;;;;;6.87;5.47;;;;;;;;;;4955518;29;20666;-87
2021/11/24 13:13:40;;;;;;;6.53;5.93;;;;;;;;;;4955392;29;20260;-87
2021/11/24 13:16:20;;;;;;;10.30;6.90;;;;;;;;;;4955318;29;20194;-86
2021/11/24 13:18:51;;;;;;;5.10;4.60;;;;;;;;;;4955160;29;20186;-86
2021/11/24 13:21:19;;;;;;;7.63;6.00;;;;;;;;;;4955211;29;20209;-87
2021/11/24 13:23:46;;;;;;;10.47;6.50;;;;;;;;;;4955169;29;20202;-86
2021/11/24 13:26:15;;;;;;;7.20;6.17;;;;;;;;;;4954808;28;20202;-87
2021/11/24 13:28:42;;;;;;;5.80;5.30;;;;;;;;;;4954399;29;20297;-86
2021/11/24 13:31:09;;;;;;;5.80;5.20;;;;;;;;;;4954748;29;20205;-86
2021/11/24 13:33:39;;;;;;;7.37;5.70;;;;;;;;;;4954867;29;20225;-87
2021/11/24 13:36:11;;;;;;;6.13;5.40;;;;;;;;;;4954872;29;20208;-87
2021/11/24 13:38:40;;;;;;;5.67;4.33;;;;;;;;;;4954809;29;20198;-87
2021/11/24 13:41:17;;;;;;;8.20;6.67;;;;;;;;;;4954778;29;20201;-86
2021/11/24 13:43:46;;;;;;;5.30;4.63;;;;;;;;;;4955122;29;20248;-87
2021/11/24 13:46:16;;;;;;;8.50;7.40;;;;;;;;;;4954889;29;20634;-87
2021/11/24 13:48:44;;;;;;;12.13;8.27;;;;;;;;;;4954891;29;20202;-87
2021/11/24 13:51:14;;;;;;;5.90;5.33;;;;;;;;;;4954624;29;20740;-87
2021/11/24 13:53:42;;;;;;;5.40;4.30;;;;;;;;;;4954949;29;20228;-87
2021/11/24 13:56:24;;;;;;;4.87;4.30;;;;;;;;;;4954416;29;20202;-87
2021/11/24 13:58:57;;;;;;;12.97;10.23;;;;;;;;;;4954515;29;20284;-87
2021/11/24 14:01:27;;;;;;;6.37;5.43;;;;;;;;;;4954459;29;20360;-87
2021/11/24 14:03:55;;;;;;;5.57;4.07;;;;;;;;;;4954328;29;20277;-87
2021/11/24 14:06:47;;;;;;;3.53;3.23;;;;;;;;;;4954733;29;20202;-87
2021/11/24 14:09:26;;;;;;;4.60;4.07;;;;;;;;;;4940268;29;20253;-87
2021/11/24 14:12:10;;;;;;;5.73;5.23;;;;;;;;;;4954712;29;20634;-87
2021/11/24 14:14:52;;;;;;;29.10;15.03;;;;;;;;;;4954407;29;20202;-87
2021/11/24 14:17:27;;;;;;;11.40;7.37;;;;;;;;;;4954413;29;20292;-87
2021/11/24 14:19:55;;;;;;;19.10;6.83;;;;;;;;;;4954620;29;20212;-87
2021/11/24 14:22:35;;;;;;;4.73;4.27;;;;;;;;;;4954368;29;20273;-87
2021/11/24 14:25:02;;;;;;;5.10;4.47;;;;;;;;;;4954123;29;20248;-87
2021/11/24 14:27:31;;;;;;;3.73;3.37;;;;;;;;;;4954106;29;20253;-87
2021/11/24 14:29:58;;;;;;;4.03;3.33;;;;;;;;;;4954159;29;20209;-86
2021/11/24 14:32:26;;;;;;;4.47;3.40;;;;;;;;;;4953969;29;20312;-87
2021/11/24 14:34:53;;;;;;;27.00;16.97;;;;;;;;;;4954062;29;20261;-86
2021/11/24 14:37:20;;;;;;;10.33;7.67;;;;;;;;;;4954142;29;20234;-86
2021/11/24 14:39:47;;;;;;;5.80;5.00;;;;;;;;;;4959984;28;20287;-87
2021/11/24 14:42:15;;;;;;;7.80;7.10;;;;;;;;;;4961345;29;20213;-88
2021/11/24 14:44:43;;;;;;;9.27;8.47;;;;;;;;;;4960659;29;20757;-86
2021/11/24 14:47:11;;;;;;;5.30;4.83;;;;;;;;;;4960570;29;20335;-86